sensor_id;sensor_type;location;lat;lon;timestamp;P1;durP1;ratioP1;P2;durP2;ratioP2
51174;SDS011;37240;50.104;20.010;2023-11-18T00:02:06;8.90;;;5.25;;
51174;SDS011;37240;50.104;20.010;2023-11-18T00:07:06;9.13;;;5.63;;
51174;SDS011;37240;50.104;20.010;2023-11-18T00:12:07;7.25;;;4.88;;
51174;SDS011;37240;50.104;20.010;2023-11-18T00:17:07;6.95;;;5.32;;
51174;SDS011;37240;50.104;20.010;2023-11-18T00:22:08;7.85;;;4.45;;
51174;SDS011;37240;50.104;20.010;2023-11-18T00:27:09;8.57;;;4.63;;
51174;SDS011;37240;50.104;20.010;2023-11-18T00:32:09;8.30;;;5.32;;
51174;SDS011;37240;50.104;20.010;2023-11-18T00:37:10;33.45;;;17.17;;
51174;SDS011;37240;50.104;20.010;2023-11-18T00:42:10;11.10;;;7.47;;
51174;SDS011;37240;50.104;20.010;2023-11-18T00:47:11;8.23;;;5.13;;
51174;SDS011;37240;50.104;20.010;2023-11-18T00:52:11;10.55;;;6.68;;
51174;SDS011;37240;50.104;20.010;2023-11-18T00:57:12;20.00;;;11.75;;
51174;SDS011;37240;50.104;20.010;2023-11-18T01:02:12;6.45;;;4.63;;
51174;SDS011;37240;50.104;20.010;2023-11-18T01:07:13;6.30;;;4.07;;
51174;SDS011;37240;50.104;20.010;2023-11-18T01:12:13;4.30;;;3.70;;
51174;SDS011;37240;50.104;20.010;2023-11-18T01:17:14;6.57;;;4.75;;
51174;SDS011;37240;50.104;20.010;2023-11-18T01:22:14;13.50;;;6.32;;
51174;SDS011;37240;50.104;20.010;2023-11-18T01:27:15;7.60;;;5.25;;
51174;SDS011;37240;50.104;20.010;2023-11-18T01:32:15;11.90;;;5.65;;
51174;SDS011;37240;50.104;20.010;2023-11-18T01:37:16;7.88;;;5.32;;
51174;SDS011;37240;50.104;20.010;2023-11-18T01:42:17;5.53;;;4.40;;
51174;SDS011;37240;50.104;20.010;2023-11-18T01:47:17;6.63;;;4.10;;
51174;SDS011;37240;50.104;20.010;2023-11-18T01:52:18;8.23;;;6.25;;
51174;SDS011;37240;50.104;20.010;2023-11-18T01:57:18;16.00;;;8.02;;
51174;SDS011;37240;50.104;20.010;2023-11-18T02:02:19;6.38;;;4.50;;
51174;SDS011;37240;50.104;20.010;2023-11-18T02:07:20;3.53;;;3.15;;
51174;SDS011;37240;50.104;20.010;2023-11-18T02:12:27;8.45;;;4.93;;
51174;SDS011;37240;50.104;20.010;2023-11-18T02:17:33;7.78;;;4.68;;
51174;SDS011;37240;50.104;20.010;2023-11-18T02:22:37;7.80;;;4.78;;
51174;SDS011;37240;50.104;20.010;2023-11-18T02:27:37;8.32;;;5.22;;
51174;SDS011;37240;50.104;20.010;2023-11-18T02:37:49;8.02;;;4.93;;
51174;SDS011;37240;50.104;20.010;2023-11-18T02:42:51;6.43;;;5.03;;
51174;SDS011;37240;50.104;20.010;2023-11-18T02:47:53;8.68;;;4.90;;
51174;SDS011;37240;50.104;20.010;2023-11-18T02:52:53;9.13;;;4.53;;
51174;SDS011;37240;50.104;20.010;2023-11-18T02:57:54;7.55;;;5.00;;
51174;SDS011;37240;50.104;20.010;2023-11-18T03:02:55;13.50;;;5.57;;
51174;SDS011;37240;50.104;20.010;2023-11-18T03:07:55;13.93;;;6.38;;
51174;SDS011;37240;50.104;20.010;2023-11-18T03:12:56;10.27;;;6.28;;
51174;SDS011;37240;50.104;20.010;2023-11-18T03:17:56;15.07;;;6.63;;
51174;SDS011;37240;50.104;20.010;2023-11-18T03:22:58;13.65;;;6.22;;
51174;SDS011;37240;50.104;20.010;2023-11-18T03:28:00;11.07;;;4.80;;
51174;SDS011;37240;50.104;20.010;2023-11-18T03:33:00;10.77;;;5.47;;
51174;SDS011;37240;50.104;20.010;2023-11-18T03:38:01;10.15;;;5.97;;
51174;SDS011;37240;50.104;20.010;2023-11-18T03:43:01;9.15;;;4.80;;
51174;SDS011;37240;50.104;20.010;2023-11-18T03:48:02;10.30;;;5.60;;
51174;SDS011;37240;50.104;20.010;2023-11-18T03:53:03;9.75;;;5.80;;
51174;SDS011;37240;50.104;20.010;2023-11-18T03:58:03;8.98;;;5.43;;
51174;SDS011;37240;50.104;20.010;2023-11-18T04:03:04;6.13;;;4.97;;
51174;SDS011;37240;50.104;20.010;2023-11-18T04:08:04;8.80;;;5.00;;
51174;SDS011;37240;50.104;20.010;2023-11-18T04:13:05;12.52;;;4.82;;
51174;SDS011;37240;50.104;20.010;2023-11-18T04:18:05;9.20;;;5.45;;
51174;SDS011;37240;50.104;20.010;2023-11-18T04:23:06;10.10;;;5.50;;
51174;SDS011;37240;50.104;20.010;2023-11-18T04:28:06;10.65;;;5.68;;
51174;SDS011;37240;50.104;20.010;2023-11-18T04:33:07;8.57;;;5.10;;
51174;SDS011;37240;50.104;20.010;2023-11-18T04:38:07;7.35;;;5.13;;
51174;SDS011;37240;50.104;20.010;2023-11-18T04:43:08;8.57;;;4.90;;
51174;SDS011;37240;50.104;20.010;2023-11-18T04:48:08;9.63;;;4.43;;
51174;SDS011;37240;50.104;20.010;2023-11-18T04:53:09;12.07;;;5.05;;
51174;SDS011;37240;50.104;20.010;2023-11-18T04:58:10;10.60;;;6.68;;
51174;SDS011;37240;50.104;20.010;2023-11-18T05:03:10;5.03;;;3.95;;
51174;SDS011;37240;50.104;20.010;2023-11-18T05:08:18;4.10;;;3.70;;
51174;SDS011;37240;50.104;20.010;2023-11-18T05:13:20;3.63;;;3.35;;
51174;SDS011;37240;50.104;20.010;2023-11-18T05:18:20;3.58;;;3.28;;
51174;SDS011;37240;50.104;20.010;2023-11-18T05:23:21;3.70;;;3.13;;
51174;SDS011;37240;50.104;20.010;2023-11-18T05:28:21;6.72;;;3.72;;
51174;SDS011;37240;50.104;20.010;2023-11-18T05:33:22;3.55;;;3.22;;
51174;SDS011;37240;50.104;20.010;2023-11-18T05:38:22;9.07;;;4.65;;
51174;SDS011;37240;50.104;20.010;2023-11-18T05:43:24;7.65;;;3.45;;
51174;SDS011;37240;50.104;20.010;2023-11-18T05:48:25;5.43;;;4.47;;
51174;SDS011;37240;50.104;20.010;2023-11-18T05:53:25;5.10;;;4.32;;
51174;SDS011;37240;50.104;20.010;2023-11-18T05:58:26;4.63;;;4.18;;
51174;SDS011;37240;50.104;20.010;2023-11-18T06:03:26;5.00;;;4.47;;
51174;SDS011;37240;50.104;20.010;2023-11-18T06:08:27;4.65;;;4.18;;
51174;SDS011;37240;50.104;20.010;2023-11-18T06:13:27;6.00;;;4.57;;
51174;SDS011;37240;50.104;20.010;2023-11-18T06:18:28;8.57;;;4.93;;
51174;SDS011;37240;50.104;20.010;2023-11-18T06:23:28;8.43;;;4.47;;
51174;SDS011;37240;50.104;20.010;2023-11-18T06:28:29;4.28;;;3.75;;
51174;SDS011;37240;50.104;20.010;2023-11-18T06:33:29;3.28;;;2.95;;
51174;SDS011;37240;50.104;20.010;2023-11-18T06:38:30;10.10;;;2.90;;
51174;SDS011;37240;50.104;20.010;2023-11-18T06:43:31;3.08;;;2.53;;
51174;SDS011;37240;50.104;20.010;2023-11-18T06:48:31;6.72;;;2.58;;
51174;SDS011;37240;50.104;20.010;2023-11-18T06:53:32;2.55;;;1.88;;
51174;SDS011;37240;50.104;20.010;2023-11-18T06:58:32;2.00;;;1.75;;
51174;SDS011;37240;50.104;20.010;2023-11-18T07:03:33;2.67;;;2.55;;
51174;SDS011;37240;50.104;20.010;2023-11-18T07:08:33;3.53;;;2.50;;
51174;SDS011;37240;50.104;20.010;2023-11-18T07:13:34;2.47;;;2.28;;
51174;SDS011;37240;50.104;20.010;2023-11-18T07:18:35;3.35;;;2.22;;
51174;SDS011;37240;50.104;20.010;2023-11-18T07:23:36;3.53;;;2.10;;
51174;SDS011;37240;50.104;20.010;2023-11-18T07:28:36;1.75;;;1.65;;
51174;SDS011;37240;50.104;20.010;2023-11-18T07:33:37;1.48;;;1.40;;
51174;SDS011;37240;50.104;20.010;2023-11-18T07:38:37;1.27;;;1.17;;
51174;SDS011;37240;50.104;20.010;2023-11-18T07:43:39;3.90;;;2.72;;
51174;SDS011;37240;50.104;20.010;2023-11-18T07:48:39;4.75;;;2.92;;
51174;SDS011;37240;50.104;20.010;2023-11-18T07:53:40;3.97;;;2.90;;
51174;SDS011;37240;50.104;20.010;2023-11-18T07:58:41;4.05;;;3.58;;
51174;SDS011;37240;50.104;20.010;2023-11-18T08:03:42;4.72;;;3.30;;
51174;SDS011;37240;50.104;20.010;2023-11-18T08:08:43;7.18;;;3.88;;
51174;SDS011;37240;50.104;20.010;2023-11-18T08:13:44;9.40;;;4.63;;
51174;SDS011;37240;50.104;20.010;2023-11-18T08:18:44;4.95;;;3.40;;
51174;SDS011;37240;50.104;20.010;2023-11-18T08:23:45;6.05;;;3.40;;
51174;SDS011;37240;50.104;20.010;2023-11-18T08:28:45;5.20;;;3.08;;
51174;SDS011;37240;50.104;20.010;2023-11-18T08:33:46;6.80;;;4.78;;
51174;SDS011;37240;50.104;20.010;2023-11-18T08:38:46;11.07;;;5.72;;
51174;SDS011;37240;50.104;20.010;2023-11-18T08:43:47;11.65;;;6.25;;
51174;SDS011;37240;50.104;20.010;2023-11-18T08:48:47;14.82;;;6.47;;
51174;SDS011;37240;50.104;20.010;2023-11-18T08:53:48;17.50;;;7.50;;
51174;SDS011;37240;50.104;20.010;2023-11-18T08:58:48;12.55;;;7.63;;
51174;SDS011;37240;50.104;20.010;2023-11-18T09:03:49;11.52;;;7.45;;
51174;SDS011;37240;50.104;20.010;2023-11-18T09:08:49;13.85;;;6.32;;
51174;SDS011;37240;50.104;20.010;2023-11-18T09:13:50;9.85;;;6.07;;
51174;SDS011;37240;50.104;20.010;2023-11-18T09:18:51;11.70;;;6.78;;
51174;SDS011;37240;50.104;20.010;2023-11-18T09:23:52;10.45;;;6.30;;
51174;SDS011;37240;50.104;20.010;2023-11-18T09:28:52;6.10;;;4.60;;
51174;SDS011;37240;50.104;20.010;2023-11-18T09:33:53;11.30;;;5.22;;
51174;SDS011;37240;50.104;20.010;2023-11-18T09:38:53;7.28;;;5.13;;
51174;SDS011;37240;50.104;20.010;2023-11-18T09:43:54;8.00;;;4.72;;
51174;SDS011;37240;50.104;20.010;2023-11-18T09:59:54;12.80;;;7.32;;
51174;SDS011;37240;50.104;20.010;2023-11-18T10:05:01;12.95;;;7.07;;
51174;SDS011;37240;50.104;20.010;2023-11-18T10:10:04;17.50;;;10.23;;
51174;SDS011;37240;50.104;20.010;2023-11-18T10:15:05;16.27;;;7.85;;
51174;SDS011;37240;50.104;20.010;2023-11-18T10:20:08;13.50;;;7.97;;
51174;SDS011;37240;50.104;20.010;2023-11-18T10:25:09;12.57;;;7.75;;
51174;SDS011;37240;50.104;20.010;2023-11-18T10:30:10;11.95;;;6.80;;
51174;SDS011;37240;50.104;20.010;2023-11-18T10:35:11;12.68;;;7.38;;
51174;SDS011;37240;50.104;20.010;2023-11-18T10:40:12;11.25;;;7.00;;
51174;SDS011;37240;50.104;20.010;2023-11-18T10:45:15;12.75;;;7.57;;
51174;SDS011;37240;50.104;20.010;2023-11-18T10:50:23;13.70;;;7.80;;
51174;SDS011;37240;50.104;20.010;2023-11-18T10:55:33;10.02;;;6.95;;
51174;SDS011;37240;50.104;20.010;2023-11-18T11:05:51;11.23;;;6.87;;
51174;SDS011;37240;50.104;20.010;2023-11-18T11:10:52;15.23;;;7.85;;
51174;SDS011;37240;50.104;20.010;2023-11-18T11:15:55;13.65;;;7.43;;
51174;SDS011;37240;50.104;20.010;2023-11-18T11:21:16;15.45;;;7.57;;
51174;SDS011;37240;50.104;20.010;2023-11-18T11:31:31;9.88;;;6.40;;
51174;SDS011;37240;50.104;20.010;2023-11-18T11:36:47;10.15;;;6.40;;
51174;SDS011;37240;50.104;20.010;2023-11-18T11:41:52;9.45;;;6.45;;
51174;SDS011;37240;50.104;20.010;2023-11-18T11:46:53;10.60;;;6.57;;
51174;SDS011;37240;50.104;20.010;2023-11-18T11:51:56;6.72;;;5.30;;
51174;SDS011;37240;50.104;20.010;2023-11-18T11:56:58;6.80;;;5.03;;
51174;SDS011;37240;50.104;20.010;2023-11-18T12:01:59;7.63;;;4.88;;
51174;SDS011;37240;50.104;20.010;2023-11-18T12:07:00;9.45;;;5.82;;
51174;SDS011;37240;50.104;20.010;2023-11-18T12:12:00;14.63;;;5.95;;
51174;SDS011;37240;50.104;20.010;2023-11-18T12:17:03;12.55;;;5.72;;
51174;SDS011;37240;50.104;20.010;2023-11-18T12:22:07;7.43;;;5.28;;
51174;SDS011;37240;50.104;20.010;2023-11-18T12:27:07;7.90;;;5.35;;
51174;SDS011;37240;50.104;20.010;2023-11-18T12:32:09;12.45;;;5.50;;
51174;SDS011;37240;50.104;20.010;2023-11-18T12:37:29;15.68;;;6.47;;
51174;SDS011;37240;50.104;20.010;2023-11-18T12:43:00;11.40;;;6.63;;
51174;SDS011;37240;50.104;20.010;2023-11-18T12:48:02;8.73;;;6.18;;
51174;SDS011;37240;50.104;20.010;2023-11-18T12:53:05;11.05;;;5.93;;
51174;SDS011;37240;50.104;20.010;2023-11-18T12:58:06;10.10;;;6.45;;
51174;SDS011;37240;50.104;20.010;2023-11-18T13:03:07;9.63;;;6.35;;
51174;SDS011;37240;50.104;20.010;2023-11-18T13:08:08;8.70;;;5.43;;
51174;SDS011;37240;50.104;20.010;2023-11-18T13:13:08;8.18;;;6.47;;
51174;SDS011;37240;50.104;20.010;2023-11-18T13:18:11;23.52;;;6.78;;
51174;SDS011;37240;50.104;20.010;2023-11-18T13:23:11;12.02;;;6.85;;
51174;SDS011;37240;50.104;20.010;2023-11-18T13:28:17;12.20;;;5.63;;
51174;SDS011;37240;50.104;20.010;2023-11-18T13:33:18;10.88;;;6.20;;
51174;SDS011;37240;50.104;20.010;2023-11-18T13:38:18;13.07;;;6.28;;
51174;SDS011;37240;50.104;20.010;2023-11-18T13:43:19;9.30;;;6.32;;
51174;SDS011;37240;50.104;20.010;2023-11-18T13:48:20;13.02;;;5.50;;
51174;SDS011;37240;50.104;20.010;2023-11-18T13:53:21;11.77;;;5.80;;
51174;SDS011;37240;50.104;20.010;2023-11-18T13:58:22;16.50;;;6.03;;
51174;SDS011;37240;50.104;20.010;2023-11-18T14:03:22;9.85;;;6.78;;
51174;SDS011;37240;50.104;20.010;2023-11-18T14:08:23;10.15;;;6.13;;
51174;SDS011;37240;50.104;20.010;2023-11-18T14:13:23;13.52;;;6.65;;
51174;SDS011;37240;50.104;20.010;2023-11-18T14:18:24;7.95;;;5.03;;
51174;SDS011;37240;50.104;20.010;2023-11-18T14:23:24;10.50;;;6.60;;
51174;SDS011;37240;50.104;20.010;2023-11-18T14:28:25;13.63;;;6.38;;
51174;SDS011;37240;50.104;20.010;2023-11-18T14:33:25;9.95;;;6.43;;
51174;SDS011;37240;50.104;20.010;2023-11-18T14:38:26;13.57;;;5.88;;
51174;SDS011;37240;50.104;20.010;2023-11-18T14:43:27;11.30;;;5.88;;
51174;SDS011;37240;50.104;20.010;2023-11-18T14:48:27;13.32;;;7.10;;
51174;SDS011;37240;50.104;20.010;2023-11-18T14:53:28;25.33;;;9.35;;
51174;SDS011;37240;50.104;20.010;2023-11-18T14:58:28;12.20;;;8.07;;
51174;SDS011;37240;50.104;20.010;2023-11-18T15:03:29;12.13;;;6.88;;
51174;SDS011;37240;50.104;20.010;2023-11-18T15:08:29;11.68;;;7.25;;
51174;SDS011;37240;50.104;20.010;2023-11-18T15:13:30;9.90;;;7.22;;
51174;SDS011;37240;50.104;20.010;2023-11-18T15:18:32;12.18;;;7.47;;
51174;SDS011;37240;50.104;20.010;2023-11-18T15:23:32;12.13;;;7.75;;
51174;SDS011;37240;50.104;20.010;2023-11-18T15:28:33;14.45;;;7.30;;
51174;SDS011;37240;50.104;20.010;2023-11-18T15:33:33;9.68;;;6.60;;
51174;SDS011;37240;50.104;20.010;2023-11-18T15:38:34;12.77;;;6.55;;
51174;SDS011;37240;50.104;20.010;2023-11-18T15:43:34;16.55;;;8.23;;
51174;SDS011;37240;50.104;20.010;2023-11-18T15:48:35;11.35;;;6.75;;
51174;SDS011;37240;50.104;20.010;2023-11-18T15:53:35;13.50;;;6.38;;
51174;SDS011;37240;50.104;20.010;2023-11-18T15:58:36;13.13;;;7.60;;
51174;SDS011;37240;50.104;20.010;2023-11-18T16:03:36;11.80;;;6.60;;
51174;SDS011;37240;50.104;20.010;2023-11-18T16:08:37;14.25;;;7.22;;
51174;SDS011;37240;50.104;20.010;2023-11-18T16:13:37;16.25;;;8.13;;
51174;SDS011;37240;50.104;20.010;2023-11-18T16:18:38;12.90;;;8.20;;
51174;SDS011;37240;50.104;20.010;2023-11-18T16:23:38;15.45;;;7.93;;
51174;SDS011;37240;50.104;20.010;2023-11-18T16:28:39;14.38;;;8.25;;
51174;SDS011;37240;50.104;20.010;2023-11-18T16:33:39;14.90;;;8.10;;
51174;SDS011;37240;50.104;20.010;2023-11-18T16:38:40;18.98;;;8.75;;
51174;SDS011;37240;50.104;20.010;2023-11-18T16:43:40;15.85;;;7.82;;
51174;SDS011;37240;50.104;20.010;2023-11-18T16:48:41;12.95;;;7.80;;
51174;SDS011;37240;50.104;20.010;2023-11-18T16:53:41;20.02;;;10.45;;
51174;SDS011;37240;50.104;20.010;2023-11-18T16:58:42;22.77;;;9.95;;
51174;SDS011;37240;50.104;20.010;2023-11-18T17:03:42;18.33;;;8.85;;
51174;SDS011;37240;50.104;20.010;2023-11-18T17:08:43;21.80;;;9.63;;
51174;SDS011;37240;50.104;20.010;2023-11-18T17:13:44;21.85;;;10.55;;
51174;SDS011;37240;50.104;20.010;2023-11-18T17:18:44;15.48;;;9.40;;
51174;SDS011;37240;50.104;20.010;2023-11-18T17:23:45;24.80;;;10.48;;
51174;SDS011;37240;50.104;20.010;2023-11-18T17:28:46;20.52;;;10.02;;
51174;SDS011;37240;50.104;20.010;2023-11-18T17:33:46;19.17;;;11.13;;
51174;SDS011;37240;50.104;20.010;2023-11-18T17:38:47;19.45;;;10.07;;
51174;SDS011;37240;50.104;20.010;2023-11-18T17:43:47;23.45;;;10.55;;
51174;SDS011;37240;50.104;20.010;2023-11-18T17:48:49;16.27;;;9.13;;
51174;SDS011;37240;50.104;20.010;2023-11-18T17:53:49;17.13;;;10.15;;
51174;SDS011;37240;50.104;20.010;2023-11-18T17:58:50;21.80;;;10.63;;
51174;SDS011;37240;50.104;20.010;2023-11-18T18:03:50;23.17;;;10.75;;
51174;SDS011;37240;50.104;20.010;2023-11-18T18:08:51;20.50;;;9.95;;
51174;SDS011;37240;50.104;20.010;2023-11-18T18:13:51;24.85;;;11.50;;
51174;SDS011;37240;50.104;20.010;2023-11-18T18:18:52;22.92;;;10.45;;
51174;SDS011;37240;50.104;20.010;2023-11-18T18:23:52;23.33;;;10.23;;
51174;SDS011;37240;50.104;20.010;2023-11-18T18:28:53;21.33;;;10.63;;
51174;SDS011;37240;50.104;20.010;2023-11-18T18:33:53;22.98;;;10.63;;
51174;SDS011;37240;50.104;20.010;2023-11-18T18:38:54;24.33;;;12.13;;
51174;SDS011;37240;50.104;20.010;2023-11-18T18:43:54;23.90;;;10.35;;
51174;SDS011;37240;50.104;20.010;2023-11-18T18:48:55;22.02;;;10.32;;
51174;SDS011;37240;50.104;20.010;2023-11-18T18:53:55;26.45;;;12.70;;
51174;SDS011;37240;50.104;20.010;2023-11-18T18:58:56;23.08;;;12.43;;
51174;SDS011;37240;50.104;20.010;2023-11-18T19:03:56;20.80;;;10.13;;
51174;SDS011;37240;50.104;20.010;2023-11-18T19:08:57;27.33;;;11.52;;
51174;SDS011;37240;50.104;20.010;2023-11-18T19:13:57;24.40;;;10.18;;
51174;SDS011;37240;50.104;20.010;2023-11-18T19:18:58;20.77;;;10.70;;
51174;SDS011;37240;50.104;20.010;2023-11-18T19:23:59;18.08;;;10.32;;
51174;SDS011;37240;50.104;20.010;2023-11-18T19:28:59;25.45;;;10.50;;
51174;SDS011;37240;50.104;20.010;2023-11-18T19:34:00;19.05;;;9.55;;
51174;SDS011;37240;50.104;20.010;2023-11-18T19:39:00;21.10;;;11.48;;
51174;SDS011;37240;50.104;20.010;2023-11-18T19:44:01;17.95;;;10.32;;
51174;SDS011;37240;50.104;20.010;2023-11-18T19:49:01;18.27;;;9.80;;
51174;SDS011;37240;50.104;20.010;2023-11-18T19:54:02;21.05;;;11.00;;
51174;SDS011;37240;50.104;20.010;2023-11-18T19:59:03;21.08;;;11.50;;
51174;SDS011;37240;50.104;20.010;2023-11-18T20:04:03;22.00;;;11.63;;
51174;SDS011;37240;50.104;20.010;2023-11-18T20:09:04;21.15;;;11.10;;
51174;SDS011;37240;50.104;20.010;2023-11-18T20:14:04;26.40;;;12.23;;
51174;SDS011;37240;50.104;20.010;2023-11-18T20:19:05;27.45;;;12.77;;
51174;SDS011;37240;50.104;20.010;2023-11-18T20:24:06;30.95;;;13.73;;
51174;SDS011;37240;50.104;20.010;2023-11-18T20:29:06;31.15;;;14.18;;
51174;SDS011;37240;50.104;20.010;2023-11-18T20:34:07;24.08;;;12.65;;
51174;SDS011;37240;50.104;20.010;2023-11-18T20:39:07;27.42;;;13.27;;
51174;SDS011;37240;50.104;20.010;2023-11-18T20:44:08;32.30;;;13.80;;
51174;SDS011;37240;50.104;20.010;2023-11-18T20:49:09;29.40;;;13.55;;
51174;SDS011;37240;50.104;20.010;2023-11-18T20:54:10;25.17;;;13.07;;
51174;SDS011;37240;50.104;20.010;2023-11-18T20:59:11;35.67;;;14.70;;
51174;SDS011;37240;50.104;20.010;2023-11-18T21:04:11;30.85;;;15.07;;
51174;SDS011;37240;50.104;20.010;2023-11-18T21:09:12;31.10;;;14.50;;
51174;SDS011;37240;50.104;20.010;2023-11-18T21:14:13;25.15;;;12.80;;
51174;SDS011;37240;50.104;20.010;2023-11-18T21:19:13;27.75;;;13.57;;
51174;SDS011;37240;50.104;20.010;2023-11-18T21:24:14;29.60;;;13.85;;
51174;SDS011;37240;50.104;20.010;2023-11-18T21:29:14;26.98;;;12.27;;
51174;SDS011;37240;50.104;20.010;2023-11-18T21:34:15;28.30;;;12.13;;
51174;SDS011;37240;50.104;20.010;2023-11-18T21:39:15;28.42;;;13.75;;
51174;SDS011;37240;50.104;20.010;2023-11-18T21:44:16;31.23;;;15.05;;
51174;SDS011;37240;50.104;20.010;2023-11-18T21:49:17;31.50;;;14.50;;
51174;SDS011;37240;50.104;20.010;2023-11-18T21:54:17;29.98;;;14.02;;
51174;SDS011;37240;50.104;20.010;2023-11-18T21:59:18;30.83;;;15.00;;
51174;SDS011;37240;50.104;20.010;2023-11-18T22:04:18;34.33;;;14.85;;
51174;SDS011;37240;50.104;20.010;2023-11-18T22:09:19;36.58;;;15.45;;
51174;SDS011;37240;50.104;20.010;2023-11-18T22:14:19;27.60;;;13.50;;
51174;SDS011;37240;50.104;20.010;2023-11-18T22:19:20;29.00;;;13.80;;
51174;SDS011;37240;50.104;20.010;2023-11-18T22:24:20;34.13;;;14.98;;
51174;SDS011;37240;50.104;20.010;2023-11-18T22:29:21;30.35;;;14.15;;
51174;SDS011;37240;50.104;20.010;2023-11-18T22:34:22;33.95;;;16.58;;
51174;SDS011;37240;50.104;20.010;2023-11-18T22:39:22;35.72;;;14.73;;
51174;SDS011;37240;50.104;20.010;2023-11-18T22:44:23;31.13;;;14.20;;
51174;SDS011;37240;50.104;20.010;2023-11-18T22:49:23;41.72;;;16.52;;
51174;SDS011;37240;50.104;20.010;2023-11-18T22:54:24;35.67;;;16.05;;
51174;SDS011;37240;50.104;20.010;2023-11-18T22:59:25;33.00;;;15.13;;
51174;SDS011;37240;50.104;20.010;2023-11-18T23:04:25;40.65;;;16.92;;
51174;SDS011;37240;50.104;20.010;2023-11-18T23:09:26;41.13;;;15.88;;
51174;SDS011;37240;50.104;20.010;2023-11-18T23:14:26;45.08;;;16.75;;
51174;SDS011;37240;50.104;20.010;2023-11-18T23:19:27;34.20;;;15.48;;
51174;SDS011;37240;50.104;20.010;2023-11-18T23:24:27;41.05;;;17.38;;
51174;SDS011;37240;50.104;20.010;2023-11-18T23:29:28;39.13;;;15.27;;
51174;SDS011;37240;50.104;20.010;2023-11-18T23:34:28;33.28;;;15.25;;
51174;SDS011;37240;50.104;20.010;2023-11-18T23:39:29;37.50;;;16.23;;
51174;SDS011;37240;50.104;20.010;2023-11-18T23:44:29;41.03;;;17.02;;
51174;SDS011;37240;50.104;20.010;2023-11-18T23:49:30;37.00;;;17.85;;
51174;SDS011;37240;50.104;20.010;2023-11-18T23:54:30;37.97;;;17.60;;
51174;SDS011;37240;50.104;20.010;2023-11-18T23:59:31;45.75;;;17.42;;
